sensor_id;sensor_type;location;lat;lon;timestamp;P1;durP1;ratioP1;P2;durP2;ratioP2
23360;SDS011;11852;50.082;18.554;2022-10-16T00:00:49;12.3;;;9.0;;
23360;SDS011;11852;50.082;18.554;2022-10-16T00:01:56;13.4;;;8.5;;
23360;SDS011;11852;50.082;18.554;2022-10-16T00:03:06;14.2;;;9.1;;
23360;SDS011;11852;50.082;18.554;2022-10-16T00:04:16;14.2;;;8.7;;
23360;SDS011;11852;50.082;18.554;2022-10-16T00:05:28;15.1;;;9.2;;
23360;SDS011;11852;50.082;18.554;2022-10-16T00:06:40;14.0;;;9.0;;
23360;SDS011;11852;50.082;18.554;2022-10-16T00:07:49;13.9;;;8.9;;
23360;SDS011;11852;50.082;18.554;2022-10-16T00:08:59;16.0;;;8.9;;
23360;SDS011;11852;50.082;18.554;2022-10-16T00:10:06;17.0;;;8.8;;
23360;SDS011;11852;50.082;18.554;2022-10-16T00:11:20;13.2;;;8.6;;
23360;SDS011;11852;50.082;18.554;2022-10-16T00:12:29;14.1;;;8.1;;
23360;SDS011;11852;50.082;18.554;2022-10-16T00:13:36;13.8;;;8.6;;
23360;SDS011;11852;50.082;18.554;2022-10-16T00:14:43;14.6;;;9.7;;
23360;SDS011;11852;50.082;18.554;2022-10-16T00:15:54;15.7;;;9.1;;
23360;SDS011;11852;50.082;18.554;2022-10-16T00:17:02;13.6;;;9.0;;
23360;SDS011;11852;50.082;18.554;2022-10-16T00:18:12;17.0;;;9.6;;
23360;SDS011;11852;50.082;18.554;2022-10-16T00:19:20;14.8;;;9.0;;
23360;SDS011;11852;50.082;18.554;2022-10-16T00:20:30;16.1;;;9.6;;
23360;SDS011;11852;50.082;18.554;2022-10-16T00:21:39;14.8;;;9.4;;
23360;SDS011;11852;50.082;18.554;2022-10-16T00:22:48;15.4;;;9.8;;
23360;SDS011;11852;50.082;18.554;2022-10-16T00:24:04;14.8;;;9.9;;
23360;SDS011;11852;50.082;18.554;2022-10-16T00:25:12;16.7;;;9.7;;
23360;SDS011;11852;50.082;18.554;2022-10-16T00:26:21;18.1;;;10.7;;
23360;SDS011;11852;50.082;18.554;2022-10-16T00:27:30;19.5;;;10.6;;
23360;SDS011;11852;50.082;18.554;2022-10-16T00:28:37;17.1;;;10.7;;
23360;SDS011;11852;50.082;18.554;2022-10-16T00:29:44;18.1;;;10.6;;
23360;SDS011;11852;50.082;18.554;2022-10-16T00:30:54;17.2;;;9.7;;
23360;SDS011;11852;50.082;18.554;2022-10-16T00:31:59;17.4;;;10.3;;
23360;SDS011;11852;50.082;18.554;2022-10-16T00:33:10;17.4;;;9.8;;
23360;SDS011;11852;50.082;18.554;2022-10-16T00:34:17;15.2;;;9.7;;
23360;SDS011;11852;50.082;18.554;2022-10-16T00:35:27;13.6;;;9.7;;
23360;SDS011;11852;50.082;18.554;2022-10-16T00:36:37;14.0;;;9.4;;
23360;SDS011;11852;50.082;18.554;2022-10-16T00:37:46;14.1;;;9.1;;
23360;SDS011;11852;50.082;18.554;2022-10-16T00:38:59;12.9;;;8.7;;
23360;SDS011;11852;50.082;18.554;2022-10-16T00:40:09;15.7;;;9.3;;
23360;SDS011;11852;50.082;18.554;2022-10-16T00:41:17;13.0;;;9.0;;
23360;SDS011;11852;50.082;18.554;2022-10-16T00:42:27;15.0;;;9.4;;
23360;SDS011;11852;50.082;18.554;2022-10-16T00:43:39;16.5;;;10.2;;
23360;SDS011;11852;50.082;18.554;2022-10-16T00:45:56;15.1;;;8.9;;
23360;SDS011;11852;50.082;18.554;2022-10-16T00:47:06;13.8;;;8.4;;
23360;SDS011;11852;50.082;18.554;2022-10-16T00:48:21;14.5;;;8.4;;
23360;SDS011;11852;50.082;18.554;2022-10-16T00:49:21;14.8;;;8.5;;
23360;SDS011;11852;50.082;18.554;2022-10-16T00:50:31;13.7;;;8.4;;
23360;SDS011;11852;50.082;18.554;2022-10-16T00:51:43;15.1;;;8.9;;
23360;SDS011;11852;50.082;18.554;2022-10-16T00:52:48;15.5;;;8.5;;
23360;SDS011;11852;50.082;18.554;2022-10-16T00:53:56;14.7;;;9.6;;
23360;SDS011;11852;50.082;18.554;2022-10-16T00:55:11;14.4;;;9.2;;
23360;SDS011;11852;50.082;18.554;2022-10-16T00:56:18;17.0;;;8.7;;
23360;SDS011;11852;50.082;18.554;2022-10-16T00:57:26;13.2;;;8.4;;
23360;SDS011;11852;50.082;18.554;2022-10-16T00:58:36;15.7;;;8.7;;
23360;SDS011;11852;50.082;18.554;2022-10-16T00:59:53;14.7;;;9.6;;
23360;SDS011;11852;50.082;18.554;2022-10-16T01:01:00;12.8;;;8.5;;
23360;SDS011;11852;50.082;18.554;2022-10-16T01:02:09;13.7;;;8.6;;
23360;SDS011;11852;50.082;18.554;2022-10-16T01:04:33;13.1;;;8.8;;
23360;SDS011;11852;50.082;18.554;2022-10-16T01:05:46;12.3;;;8.0;;
23360;SDS011;11852;50.082;18.554;2022-10-16T01:08:15;14.2;;;8.4;;
23360;SDS011;11852;50.082;18.554;2022-10-16T01:11:49;13.5;;;8.5;;
23360;SDS011;11852;50.082;18.554;2022-10-16T01:14:32;12.5;;;8.5;;
23360;SDS011;11852;50.082;18.554;2022-10-16T01:15:22;14.2;;;8.8;;
23360;SDS011;11852;50.082;18.554;2022-10-16T01:16:40;12.7;;;8.1;;
23360;SDS011;11852;50.082;18.554;2022-10-16T01:19:09;15.4;;;9.3;;
23360;SDS011;11852;50.082;18.554;2022-10-16T01:21:38;13.8;;;8.7;;
23360;SDS011;11852;50.082;18.554;2022-10-16T01:25:05;13.9;;;8.9;;
23360;SDS011;11852;50.082;18.554;2022-10-16T01:27:31;14.6;;;9.2;;
23360;SDS011;11852;50.082;18.554;2022-10-16T01:30:04;15.8;;;9.0;;
23360;SDS011;11852;50.082;18.554;2022-10-16T01:31:10;14.2;;;9.0;;
23360;SDS011;11852;50.082;18.554;2022-10-16T01:33:40;13.6;;;9.1;;
23360;SDS011;11852;50.082;18.554;2022-10-16T01:34:52;13.9;;;8.9;;
23360;SDS011;11852;50.082;18.554;2022-10-16T01:35:59;13.9;;;8.9;;
23360;SDS011;11852;50.082;18.554;2022-10-16T01:37:08;14.2;;;8.7;;
23360;SDS011;11852;50.082;18.554;2022-10-16T01:39:32;14.8;;;8.8;;
23360;SDS011;11852;50.082;18.554;2022-10-16T01:40:39;16.0;;;10.0;;
23360;SDS011;11852;50.082;18.554;2022-10-16T01:41:49;14.9;;;9.6;;
23360;SDS011;11852;50.082;18.554;2022-10-16T01:43:00;16.5;;;10.5;;
23360;SDS011;11852;50.082;18.554;2022-10-16T01:44:11;15.3;;;9.9;;
23360;SDS011;11852;50.082;18.554;2022-10-16T01:45:19;15.5;;;9.6;;
23360;SDS011;11852;50.082;18.554;2022-10-16T01:46:27;16.4;;;10.3;;
23360;SDS011;11852;50.082;18.554;2022-10-16T01:47:37;16.8;;;9.7;;
23360;SDS011;11852;50.082;18.554;2022-10-16T01:48:47;15.8;;;10.1;;
23360;SDS011;11852;50.082;18.554;2022-10-16T01:49:55;17.6;;;10.8;;
23360;SDS011;11852;50.082;18.554;2022-10-16T01:52:21;16.6;;;9.7;;
23360;SDS011;11852;50.082;18.554;2022-10-16T01:53:29;16.5;;;10.1;;
23360;SDS011;11852;50.082;18.554;2022-10-16T01:54:37;16.2;;;9.6;;
23360;SDS011;11852;50.082;18.554;2022-10-16T01:55:46;16.0;;;10.2;;
23360;SDS011;11852;50.082;18.554;2022-10-16T01:56:59;18.7;;;9.9;;
23360;SDS011;11852;50.082;18.554;2022-10-16T01:58:07;15.4;;;9.9;;
23360;SDS011;11852;50.082;18.554;2022-10-16T01:59:15;17.8;;;10.0;;
23360;SDS011;11852;50.082;18.554;2022-10-16T02:00:22;16.1;;;10.1;;
23360;SDS011;11852;50.082;18.554;2022-10-16T02:01:31;16.1;;;10.7;;
23360;SDS011;11852;50.082;18.554;2022-10-16T02:02:41;16.1;;;10.4;;
23360;SDS011;11852;50.082;18.554;2022-10-16T02:03:50;18.2;;;10.1;;
23360;SDS011;11852;50.082;18.554;2022-10-16T02:06:13;16.2;;;11.2;;
23360;SDS011;11852;50.082;18.554;2022-10-16T02:07:24;15.0;;;10.2;;
23360;SDS011;11852;50.082;18.554;2022-10-16T02:08:37;15.4;;;10.1;;
23360;SDS011;11852;50.082;18.554;2022-10-16T02:09:47;18.3;;;10.2;;
23360;SDS011;11852;50.082;18.554;2022-10-16T02:10:55;15.5;;;10.7;;
23360;SDS011;11852;50.082;18.554;2022-10-16T02:12:05;18.1;;;10.7;;
23360;SDS011;11852;50.082;18.554;2022-10-16T02:13:12;18.0;;;11.0;;
23360;SDS011;11852;50.082;18.554;2022-10-16T02:14:17;17.2;;;10.9;;
23360;SDS011;11852;50.082;18.554;2022-10-16T02:15:28;15.7;;;10.6;;
23360;SDS011;11852;50.082;18.554;2022-10-16T02:16:38;15.0;;;9.3;;
23360;SDS011;11852;50.082;18.554;2022-10-16T02:17:45;18.4;;;9.8;;
23360;SDS011;11852;50.082;18.554;2022-10-16T02:18:55;14.8;;;9.7;;
23360;SDS011;11852;50.082;18.554;2022-10-16T02:20:02;18.1;;;10.4;;
23360;SDS011;11852;50.082;18.554;2022-10-16T02:21:14;16.0;;;9.7;;
23360;SDS011;11852;50.082;18.554;2022-10-16T02:22:28;15.9;;;9.8;;
23360;SDS011;11852;50.082;18.554;2022-10-16T02:23:39;18.9;;;11.3;;
23360;SDS011;11852;50.082;18.554;2022-10-16T02:24:56;16.6;;;10.7;;
23360;SDS011;11852;50.082;18.554;2022-10-16T02:26:06;16.7;;;10.0;;
23360;SDS011;11852;50.082;18.554;2022-10-16T02:28:38;15.0;;;9.2;;
23360;SDS011;11852;50.082;18.554;2022-10-16T02:29:46;15.1;;;9.7;;
23360;SDS011;11852;50.082;18.554;2022-10-16T02:30:59;14.8;;;9.6;;
23360;SDS011;11852;50.082;18.554;2022-10-16T02:32:04;14.9;;;10.3;;
23360;SDS011;11852;50.082;18.554;2022-10-16T02:33:13;15.5;;;9.6;;
23360;SDS011;11852;50.082;18.554;2022-10-16T02:34:24;15.0;;;8.7;;
23360;SDS011;11852;50.082;18.554;2022-10-16T02:35:31;14.9;;;8.1;;
23360;SDS011;11852;50.082;18.554;2022-10-16T02:36:41;14.1;;;8.1;;
23360;SDS011;11852;50.082;18.554;2022-10-16T02:37:51;12.7;;;8.1;;
23360;SDS011;11852;50.082;18.554;2022-10-16T02:39:01;12.8;;;8.5;;
23360;SDS011;11852;50.082;18.554;2022-10-16T02:40:07;12.9;;;8.2;;
23360;SDS011;11852;50.082;18.554;2022-10-16T02:41:16;14.1;;;8.2;;
23360;SDS011;11852;50.082;18.554;2022-10-16T02:43:37;13.8;;;8.4;;
23360;SDS011;11852;50.082;18.554;2022-10-16T02:44:45;14.5;;;9.3;;
23360;SDS011;11852;50.082;18.554;2022-10-16T02:45:52;13.2;;;8.7;;
23360;SDS011;11852;50.082;18.554;2022-10-16T02:47:00;14.4;;;9.0;;
23360;SDS011;11852;50.082;18.554;2022-10-16T02:48:08;16.4;;;9.3;;
23360;SDS011;11852;50.082;18.554;2022-10-16T02:49:18;14.3;;;9.5;;
23360;SDS011;11852;50.082;18.554;2022-10-16T02:50:27;17.3;;;8.8;;
23360;SDS011;11852;50.082;18.554;2022-10-16T02:51:34;13.6;;;8.9;;
23360;SDS011;11852;50.082;18.554;2022-10-16T02:52:45;14.6;;;8.8;;
23360;SDS011;11852;50.082;18.554;2022-10-16T02:53:54;16.8;;;9.7;;
23360;SDS011;11852;50.082;18.554;2022-10-16T02:55:02;13.7;;;9.5;;
23360;SDS011;11852;50.082;18.554;2022-10-16T02:56:18;15.9;;;9.2;;
23360;SDS011;11852;50.082;18.554;2022-10-16T02:57:25;15.4;;;9.3;;
23360;SDS011;11852;50.082;18.554;2022-10-16T02:58:32;15.2;;;9.7;;
23360;SDS011;11852;50.082;18.554;2022-10-16T02:59:41;15.6;;;8.9;;
23360;SDS011;11852;50.082;18.554;2022-10-16T03:00:51;14.8;;;9.3;;
23360;SDS011;11852;50.082;18.554;2022-10-16T03:01:59;13.8;;;9.2;;
23360;SDS011;11852;50.082;18.554;2022-10-16T03:03:11;16.4;;;9.3;;
23360;SDS011;11852;50.082;18.554;2022-10-16T03:04:23;15.6;;;8.9;;
23360;SDS011;11852;50.082;18.554;2022-10-16T03:05:31;15.8;;;10.2;;
23360;SDS011;11852;50.082;18.554;2022-10-16T03:06:38;15.8;;;10.0;;
23360;SDS011;11852;50.082;18.554;2022-10-16T03:07:50;14.4;;;9.5;;
23360;SDS011;11852;50.082;18.554;2022-10-16T03:09:00;16.4;;;9.7;;
23360;SDS011;11852;50.082;18.554;2022-10-16T03:10:09;13.8;;;8.5;;
23360;SDS011;11852;50.082;18.554;2022-10-16T03:11:21;19.1;;;9.7;;
23360;SDS011;11852;50.082;18.554;2022-10-16T03:12:31;14.7;;;9.0;;
23360;SDS011;11852;50.082;18.554;2022-10-16T03:13:41;14.4;;;8.7;;
23360;SDS011;11852;50.082;18.554;2022-10-16T03:14:51;15.7;;;8.8;;
23360;SDS011;11852;50.082;18.554;2022-10-16T03:16:05;13.5;;;8.9;;
23360;SDS011;11852;50.082;18.554;2022-10-16T03:17:16;16.1;;;10.1;;
23360;SDS011;11852;50.082;18.554;2022-10-16T03:18:23;16.0;;;9.5;;
23360;SDS011;11852;50.082;18.554;2022-10-16T03:19:42;16.6;;;9.4;;
23360;SDS011;11852;50.082;18.554;2022-10-16T03:20:50;16.3;;;9.3;;
23360;SDS011;11852;50.082;18.554;2022-10-16T03:21:58;14.9;;;9.5;;
23360;SDS011;11852;50.082;18.554;2022-10-16T03:23:07;16.4;;;9.4;;
23360;SDS011;11852;50.082;18.554;2022-10-16T03:24:15;15.2;;;9.7;;
23360;SDS011;11852;50.082;18.554;2022-10-16T03:25:26;15.4;;;10.1;;
23360;SDS011;11852;50.082;18.554;2022-10-16T03:26:35;17.8;;;11.0;;
23360;SDS011;11852;50.082;18.554;2022-10-16T03:27:40;17.2;;;10.2;;
23360;SDS011;11852;50.082;18.554;2022-10-16T03:28:47;16.3;;;9.7;;
23360;SDS011;11852;50.082;18.554;2022-10-16T03:30:00;19.0;;;10.6;;
23360;SDS011;11852;50.082;18.554;2022-10-16T03:31:17;18.2;;;11.1;;
23360;SDS011;11852;50.082;18.554;2022-10-16T03:32:24;17.3;;;10.3;;
23360;SDS011;11852;50.082;18.554;2022-10-16T03:33:33;18.0;;;10.5;;
23360;SDS011;11852;50.082;18.554;2022-10-16T03:34:44;18.8;;;10.5;;
23360;SDS011;11852;50.082;18.554;2022-10-16T03:35:51;18.4;;;10.7;;
23360;SDS011;11852;50.082;18.554;2022-10-16T03:36:59;18.2;;;9.6;;
23360;SDS011;11852;50.082;18.554;2022-10-16T03:38:09;15.6;;;9.5;;
23360;SDS011;11852;50.082;18.554;2022-10-16T03:39:18;16.1;;;9.9;;
23360;SDS011;11852;50.082;18.554;2022-10-16T03:40:26;15.7;;;9.9;;
23360;SDS011;11852;50.082;18.554;2022-10-16T03:41:39;15.6;;;9.8;;
23360;SDS011;11852;50.082;18.554;2022-10-16T03:42:48;14.2;;;8.9;;
23360;SDS011;11852;50.082;18.554;2022-10-16T03:43:56;15.5;;;9.7;;
23360;SDS011;11852;50.082;18.554;2022-10-16T03:45:04;15.2;;;9.4;;
23360;SDS011;11852;50.082;18.554;2022-10-16T03:46:16;14.8;;;9.6;;
23360;SDS011;11852;50.082;18.554;2022-10-16T03:47:22;16.2;;;9.6;;
23360;SDS011;11852;50.082;18.554;2022-10-16T03:48:31;15.3;;;10.6;;
23360;SDS011;11852;50.082;18.554;2022-10-16T03:49:41;19.2;;;10.5;;
23360;SDS011;11852;50.082;18.554;2022-10-16T03:50:50;18.5;;;10.7;;
23360;SDS011;11852;50.082;18.554;2022-10-16T03:52:00;15.9;;;10.1;;
23360;SDS011;11852;50.082;18.554;2022-10-16T03:53:11;14.4;;;9.4;;
23360;SDS011;11852;50.082;18.554;2022-10-16T03:54:21;17.3;;;10.0;;
23360;SDS011;11852;50.082;18.554;2022-10-16T03:55:31;15.6;;;9.9;;
23360;SDS011;11852;50.082;18.554;2022-10-16T03:56:39;15.1;;;8.9;;
23360;SDS011;11852;50.082;18.554;2022-10-16T03:57:48;15.8;;;9.0;;
23360;SDS011;11852;50.082;18.554;2022-10-16T03:58:56;15.5;;;9.8;;
23360;SDS011;11852;50.082;18.554;2022-10-16T04:00:04;15.3;;;9.6;;
23360;SDS011;11852;50.082;18.554;2022-10-16T04:01:11;17.3;;;9.8;;
23360;SDS011;11852;50.082;18.554;2022-10-16T04:02:19;16.3;;;10.5;;
23360;SDS011;11852;50.082;18.554;2022-10-16T04:03:26;16.2;;;10.8;;
23360;SDS011;11852;50.082;18.554;2022-10-16T04:04:34;17.5;;;10.9;;
23360;SDS011;11852;50.082;18.554;2022-10-16T04:05:46;14.9;;;10.0;;
23360;SDS011;11852;50.082;18.554;2022-10-16T04:06:56;14.5;;;10.0;;
23360;SDS011;11852;50.082;18.554;2022-10-16T04:08:05;16.8;;;10.2;;
23360;SDS011;11852;50.082;18.554;2022-10-16T04:09:13;17.7;;;10.4;;
23360;SDS011;11852;50.082;18.554;2022-10-16T04:10:24;16.6;;;9.5;;
23360;SDS011;11852;50.082;18.554;2022-10-16T04:11:30;16.4;;;9.5;;
23360;SDS011;11852;50.082;18.554;2022-10-16T04:12:39;13.8;;;9.2;;
23360;SDS011;11852;50.082;18.554;2022-10-16T04:13:46;17.3;;;9.8;;
23360;SDS011;11852;50.082;18.554;2022-10-16T04:14:58;16.8;;;10.0;;
23360;SDS011;11852;50.082;18.554;2022-10-16T04:16:09;14.4;;;9.7;;
23360;SDS011;11852;50.082;18.554;2022-10-16T04:17:17;16.3;;;9.4;;
23360;SDS011;11852;50.082;18.554;2022-10-16T04:18:27;15.3;;;9.0;;
23360;SDS011;11852;50.082;18.554;2022-10-16T04:19:34;16.4;;;9.5;;
23360;SDS011;11852;50.082;18.554;2022-10-16T04:20:46;14.6;;;9.0;;
23360;SDS011;11852;50.082;18.554;2022-10-16T04:21:55;17.7;;;9.1;;
23360;SDS011;11852;50.082;18.554;2022-10-16T04:23:04;16.0;;;9.2;;
23360;SDS011;11852;50.082;18.554;2022-10-16T04:24:16;15.0;;;9.0;;
23360;SDS011;11852;50.082;18.554;2022-10-16T04:25:24;15.9;;;9.3;;
23360;SDS011;11852;50.082;18.554;2022-10-16T04:26:31;16.9;;;9.6;;
23360;SDS011;11852;50.082;18.554;2022-10-16T04:27:43;17.1;;;9.6;;
23360;SDS011;11852;50.082;18.554;2022-10-16T04:28:57;17.3;;;10.0;;
23360;SDS011;11852;50.082;18.554;2022-10-16T04:30:06;18.2;;;10.6;;
23360;SDS011;11852;50.082;18.554;2022-10-16T04:31:16;16.8;;;10.2;;
23360;SDS011;11852;50.082;18.554;2022-10-16T04:33:32;17.2;;;9.8;;
23360;SDS011;11852;50.082;18.554;2022-10-16T04:34:38;16.5;;;10.6;;
23360;SDS011;11852;50.082;18.554;2022-10-16T04:35:41;15.4;;;10.2;;
23360;SDS011;11852;50.082;18.554;2022-10-16T04:36:48;18.0;;;10.6;;
23360;SDS011;11852;50.082;18.554;2022-10-16T04:37:53;17.4;;;9.5;;
23360;SDS011;11852;50.082;18.554;2022-10-16T04:38:57;17.8;;;9.9;;
23360;SDS011;11852;50.082;18.554;2022-10-16T04:40:02;16.2;;;10.2;;
23360;SDS011;11852;50.082;18.554;2022-10-16T04:41:07;16.4;;;10.1;;
23360;SDS011;11852;50.082;18.554;2022-10-16T04:42:11;14.9;;;9.8;;
23360;SDS011;11852;50.082;18.554;2022-10-16T04:43:16;15.8;;;9.4;;
23360;SDS011;11852;50.082;18.554;2022-10-16T04:44:20;13.5;;;9.0;;
23360;SDS011;11852;50.082;18.554;2022-10-16T04:45:25;15.5;;;9.9;;
23360;SDS011;11852;50.082;18.554;2022-10-16T04:46:29;15.2;;;10.0;;
23360;SDS011;11852;50.082;18.554;2022-10-16T04:47:34;15.5;;;8.9;;
23360;SDS011;11852;50.082;18.554;2022-10-16T04:48:38;14.8;;;8.7;;
23360;SDS011;11852;50.082;18.554;2022-10-16T04:49:42;17.0;;;9.6;;
23360;SDS011;11852;50.082;18.554;2022-10-16T04:50:47;14.9;;;9.3;;
23360;SDS011;11852;50.082;18.554;2022-10-16T04:51:51;14.6;;;8.9;;
23360;SDS011;11852;50.082;18.554;2022-10-16T04:52:55;15.6;;;9.5;;
23360;SDS011;11852;50.082;18.554;2022-10-16T04:54:00;16.1;;;9.8;;
23360;SDS011;11852;50.082;18.554;2022-10-16T04:55:05;17.4;;;9.7;;
23360;SDS011;11852;50.082;18.554;2022-10-16T04:56:09;15.5;;;9.3;;
23360;SDS011;11852;50.082;18.554;2022-10-16T04:57:14;16.2;;;10.0;;
23360;SDS011;11852;50.082;18.554;2022-10-16T04:58:18;15.3;;;9.8;;
23360;SDS011;11852;50.082;18.554;2022-10-16T04:59:22;15.8;;;9.6;;
23360;SDS011;11852;50.082;18.554;2022-10-16T05:00:27;15.0;;;9.5;;
23360;SDS011;11852;50.082;18.554;2022-10-16T05:01:31;20.0;;;10.0;;
23360;SDS011;11852;50.082;18.554;2022-10-16T05:02:36;18.1;;;10.4;;
23360;SDS011;11852;50.082;18.554;2022-10-16T05:03:40;16.2;;;11.1;;
23360;SDS011;11852;50.082;18.554;2022-10-16T05:04:45;17.1;;;10.4;;
23360;SDS011;11852;50.082;18.554;2022-10-16T05:05:49;18.4;;;12.2;;
23360;SDS011;11852;50.082;18.554;2022-10-16T05:06:54;23.3;;;12.1;;
23360;SDS011;11852;50.082;18.554;2022-10-16T05:07:59;21.1;;;11.5;;
23360;SDS011;11852;50.082;18.554;2022-10-16T05:09:03;20.8;;;11.4;;
23360;SDS011;11852;50.082;18.554;2022-10-16T05:10:08;20.9;;;11.7;;
23360;SDS011;11852;50.082;18.554;2022-10-16T05:11:12;22.7;;;12.4;;
23360;SDS011;11852;50.082;18.554;2022-10-16T05:12:16;23.7;;;12.5;;
23360;SDS011;11852;50.082;18.554;2022-10-16T05:13:20;23.4;;;12.8;;
23360;SDS011;11852;50.082;18.554;2022-10-16T05:14:25;19.3;;;11.7;;
23360;SDS011;11852;50.082;18.554;2022-10-16T05:15:30;19.8;;;12.5;;
23360;SDS011;11852;50.082;18.554;2022-10-16T05:16:34;20.2;;;12.4;;
23360;SDS011;11852;50.082;18.554;2022-10-16T05:17:39;18.3;;;11.1;;
23360;SDS011;11852;50.082;18.554;2022-10-16T05:18:43;17.2;;;11.5;;
23360;SDS011;11852;50.082;18.554;2022-10-16T05:19:47;19.5;;;11.7;;
23360;SDS011;11852;50.082;18.554;2022-10-16T05:20:52;18.7;;;11.7;;
23360;SDS011;11852;50.082;18.554;2022-10-16T05:21:57;18.7;;;11.3;;
23360;SDS011;11852;50.082;18.554;2022-10-16T05:23:01;21.7;;;11.2;;
23360;SDS011;11852;50.082;18.554;2022-10-16T05:24:06;18.2;;;11.0;;
23360;SDS011;11852;50.082;18.554;2022-10-16T05:25:11;18.6;;;11.9;;
23360;SDS011;11852;50.082;18.554;2022-10-16T05:26:15;16.9;;;10.8;;
23360;SDS011;11852;50.082;18.554;2022-10-16T05:27:19;20.1;;;11.0;;
23360;SDS011;11852;50.082;18.554;2022-10-16T05:28:24;20.6;;;11.4;;
23360;SDS011;11852;50.082;18.554;2022-10-16T05:29:28;19.4;;;11.2;;
23360;SDS011;11852;50.082;18.554;2022-10-16T05:30:33;20.2;;;11.9;;
23360;SDS011;11852;50.082;18.554;2022-10-16T05:31:38;21.8;;;12.1;;
23360;SDS011;11852;50.082;18.554;2022-10-16T05:32:46;19.9;;;11.4;;
23360;SDS011;11852;50.082;18.554;2022-10-16T05:33:50;20.5;;;11.9;;
23360;SDS011;11852;50.082;18.554;2022-10-16T05:34:54;19.5;;;12.2;;
23360;SDS011;11852;50.082;18.554;2022-10-16T05:36:05;22.3;;;12.5;;
23360;SDS011;11852;50.082;18.554;2022-10-16T05:37:09;23.3;;;12.4;;
23360;SDS011;11852;50.082;18.554;2022-10-16T05:38:14;19.1;;;11.7;;
23360;SDS011;11852;50.082;18.554;2022-10-16T05:39:18;19.4;;;11.3;;
23360;SDS011;11852;50.082;18.554;2022-10-16T05:40:23;21.0;;;11.3;;
23360;SDS011;11852;50.082;18.554;2022-10-16T05:41:28;19.3;;;12.0;;
23360;SDS011;11852;50.082;18.554;2022-10-16T05:42:32;21.3;;;10.6;;
23360;SDS011;11852;50.082;18.554;2022-10-16T05:43:36;19.0;;;11.2;;
23360;SDS011;11852;50.082;18.554;2022-10-16T05:44:41;18.7;;;11.4;;
23360;SDS011;11852;50.082;18.554;2022-10-16T05:45:53;17.7;;;11.3;;
23360;SDS011;11852;50.082;18.554;2022-10-16T05:46:50;20.5;;;11.0;;
23360;SDS011;11852;50.082;18.554;2022-10-16T05:47:55;19.0;;;11.2;;
23360;SDS011;11852;50.082;18.554;2022-10-16T05:48:59;18.4;;;11.1;;
23360;SDS011;11852;50.082;18.554;2022-10-16T05:50:03;18.8;;;12.2;;
23360;SDS011;11852;50.082;18.554;2022-10-16T05:51:09;19.3;;;11.8;;
23360;SDS011;11852;50.082;18.554;2022-10-16T05:52:12;20.7;;;10.8;;
23360;SDS011;11852;50.082;18.554;2022-10-16T05:53:16;21.7;;;12.5;;
23360;SDS011;11852;50.082;18.554;2022-10-16T05:54:20;21.8;;;12.5;;
23360;SDS011;11852;50.082;18.554;2022-10-16T05:55:25;20.8;;;12.3;;
23360;SDS011;11852;50.082;18.554;2022-10-16T05:56:30;22.9;;;12.9;;
23360;SDS011;11852;50.082;18.554;2022-10-16T05:57:34;23.1;;;12.6;;
23360;SDS011;11852;50.082;18.554;2022-10-16T05:58:39;21.8;;;13.0;;
23360;SDS011;11852;50.082;18.554;2022-10-16T05:59:43;23.9;;;12.6;;
23360;SDS011;11852;50.082;18.554;2022-10-16T06:01:57;22.7;;;13.1;;
23360;SDS011;11852;50.082;18.554;2022-10-16T06:03:02;25.0;;;13.4;;
23360;SDS011;11852;50.082;18.554;2022-10-16T06:04:07;23.1;;;13.3;;
23360;SDS011;11852;50.082;18.554;2022-10-16T06:05:11;20.2;;;12.8;;
23360;SDS011;11852;50.082;18.554;2022-10-16T06:06:17;20.5;;;12.0;;
23360;SDS011;11852;50.082;18.554;2022-10-16T06:07:21;23.2;;;13.5;;
23360;SDS011;11852;50.082;18.554;2022-10-16T06:08:25;24.6;;;13.7;;
23360;SDS011;11852;50.082;18.554;2022-10-16T06:09:30;24.6;;;13.3;;
23360;SDS011;11852;50.082;18.554;2022-10-16T06:10:34;24.4;;;13.7;;
23360;SDS011;11852;50.082;18.554;2022-10-16T06:11:39;26.3;;;12.9;;
23360;SDS011;11852;50.082;18.554;2022-10-16T06:12:43;24.4;;;13.6;;
23360;SDS011;11852;50.082;18.554;2022-10-16T06:13:52;22.5;;;12.7;;
23360;SDS011;11852;50.082;18.554;2022-10-16T06:14:56;23.6;;;12.8;;
23360;SDS011;11852;50.082;18.554;2022-10-16T06:16:00;24.3;;;13.0;;
23360;SDS011;11852;50.082;18.554;2022-10-16T06:17:05;23.9;;;13.6;;
23360;SDS011;11852;50.082;18.554;2022-10-16T06:18:09;24.0;;;13.8;;
23360;SDS011;11852;50.082;18.554;2022-10-16T06:19:14;22.1;;;13.4;;
23360;SDS011;11852;50.082;18.554;2022-10-16T06:20:18;26.9;;;12.9;;
23360;SDS011;11852;50.082;18.554;2022-10-16T06:21:24;24.1;;;13.9;;
23360;SDS011;11852;50.082;18.554;2022-10-16T06:22:28;22.4;;;12.5;;
23360;SDS011;11852;50.082;18.554;2022-10-16T06:23:32;21.0;;;11.7;;
23360;SDS011;11852;50.082;18.554;2022-10-16T06:24:37;20.4;;;11.3;;
23360;SDS011;11852;50.082;18.554;2022-10-16T06:25:42;20.3;;;12.2;;
23360;SDS011;11852;50.082;18.554;2022-10-16T06:26:46;22.9;;;12.1;;
23360;SDS011;11852;50.082;18.554;2022-10-16T06:27:51;20.1;;;11.1;;
23360;SDS011;11852;50.082;18.554;2022-10-16T06:28:56;20.8;;;11.7;;
23360;SDS011;11852;50.082;18.554;2022-10-16T06:29:59;20.4;;;11.7;;
23360;SDS011;11852;50.082;18.554;2022-10-16T06:31:05;20.3;;;12.5;;
23360;SDS011;11852;50.082;18.554;2022-10-16T06:32:09;23.3;;;11.6;;
23360;SDS011;11852;50.082;18.554;2022-10-16T06:33:13;22.3;;;12.0;;
23360;SDS011;11852;50.082;18.554;2022-10-16T06:34:18;20.9;;;11.8;;
23360;SDS011;11852;50.082;18.554;2022-10-16T06:35:23;21.5;;;11.8;;
23360;SDS011;11852;50.082;18.554;2022-10-16T06:36:27;21.4;;;11.1;;
23360;SDS011;11852;50.082;18.554;2022-10-16T06:37:31;20.3;;;12.2;;
23360;SDS011;11852;50.082;18.554;2022-10-16T06:38:36;22.4;;;11.9;;
23360;SDS011;11852;50.082;18.554;2022-10-16T06:39:40;20.2;;;11.4;;
23360;SDS011;11852;50.082;18.554;2022-10-16T06:40:45;20.9;;;12.1;;
23360;SDS011;11852;50.082;18.554;2022-10-16T06:41:49;22.0;;;11.7;;
23360;SDS011;11852;50.082;18.554;2022-10-16T06:42:56;20.9;;;11.7;;
23360;SDS011;11852;50.082;18.554;2022-10-16T06:44:01;21.3;;;12.8;;
23360;SDS011;11852;50.082;18.554;2022-10-16T06:45:05;21.8;;;12.3;;
23360;SDS011;11852;50.082;18.554;2022-10-16T06:46:11;20.4;;;12.2;;
23360;SDS011;11852;50.082;18.554;2022-10-16T06:47:15;19.9;;;11.2;;
23360;SDS011;11852;50.082;18.554;2022-10-16T06:48:20;19.0;;;10.7;;
23360;SDS011;11852;50.082;18.554;2022-10-16T06:49:24;17.4;;;10.4;;
23360;SDS011;11852;50.082;18.554;2022-10-16T06:50:28;19.8;;;11.8;;
23360;SDS011;11852;50.082;18.554;2022-10-16T06:51:32;18.2;;;10.8;;
23360;SDS011;11852;50.082;18.554;2022-10-16T06:52:37;17.9;;;10.8;;
23360;SDS011;11852;50.082;18.554;2022-10-16T06:53:42;19.4;;;11.3;;
23360;SDS011;11852;50.082;18.554;2022-10-16T06:54:45;19.5;;;10.9;;
23360;SDS011;11852;50.082;18.554;2022-10-16T06:55:50;18.5;;;10.4;;
23360;SDS011;11852;50.082;18.554;2022-10-16T06:56:55;17.6;;;11.2;;
23360;SDS011;11852;50.082;18.554;2022-10-16T06:57:59;18.2;;;10.1;;
23360;SDS011;11852;50.082;18.554;2022-10-16T06:59:04;16.7;;;10.6;;
23360;SDS011;11852;50.082;18.554;2022-10-16T07:00:08;19.4;;;11.6;;
23360;SDS011;11852;50.082;18.554;2022-10-16T07:01:13;18.4;;;10.7;;
23360;SDS011;11852;50.082;18.554;2022-10-16T07:02:17;20.5;;;11.2;;
23360;SDS011;11852;50.082;18.554;2022-10-16T07:03:21;18.9;;;10.8;;
23360;SDS011;11852;50.082;18.554;2022-10-16T07:04:26;19.5;;;10.8;;
23360;SDS011;11852;50.082;18.554;2022-10-16T07:05:31;17.7;;;10.7;;
23360;SDS011;11852;50.082;18.554;2022-10-16T07:06:35;18.6;;;10.9;;
23360;SDS011;11852;50.082;18.554;2022-10-16T07:07:39;20.3;;;11.7;;
23360;SDS011;11852;50.082;18.554;2022-10-16T07:08:43;19.1;;;11.3;;